Insider Trading activities of Marathon Petroleum Corp insiders.

Monthly summaries of insider trading activities (stock purchases, sales, and option exercises) reported by insiders of Marathon Petroleum Corp since 2005 are illustrated in Table 1 and Table 2. Table 1 shows the monthly insider trading data of Marathon Petroleum Corp since year 2005. Table 2 shows the detailed insider transactions of Marathon Petroleum Corp since 2005. The reporting company's ticker symbol is MPC. The reporting company's CIK number is 1510295.
The total value of stock buying since 2005 is $1,783,316.
The total value of stock sales since 2005 is $42,959,821.
The total value of stock option exercises since 2005 is $29,050,969.


Table 1. Monthly summaries of insider stock purchases, sales, and option exercises for Marathon Petroleum Corp (MPC).
Trading Period Insider Buying Insider Sales Option Exercises
year-month Shares Value Shares Value Shares Value
2017-09 0 $0 11,450 $607,079 11,450 $248,350
2017-06 0 $0 25,000 $1,358,675 25,000 $309,625
2017-05 0 $0 8,568 $450,695 87,398 $2,261,423
2017-03 0 $0 28,756 $1,455,916 28,756 $490,088
2017-02 2,000 $99,880 17,136 $865,025 17,136 $443,394
2016-06 0 $0 0 $0 81,856 $1,312,150
2016-05 3,500 $129,170 0 $0 0 $0
2015-12 0 $0 47,342 $2,496,343 47,342 $900,586
2015-09 400 $18,858 0 $0 0 $0
2015-08 3,400 $182,270 0 $0 0 $0
2015-06 0 $0 26,673 $2,744,251 30,049 $1,106,494
2015-05 0 $0 88,433 $9,054,667 88,433 $2,614,968
2015-03 3,500 $338,569 0 $0 0 $0
2015-02 0 $0 69,146 $7,093,215 69,146 $1,973,184
2014-11 5,550 $499,849 0 $0 0 $0
2014-08 0 $0 1,871 $163,965 1,871 $50,479
2014-03 0 $0 0 $0 413 $5,885
2014-02 0 $0 26,624 $2,406,317 59,507 $847,974
2014-01 0 $0 32,638 $2,969,535 32,638 $747,867
2013-08 6,300 $449,631 0 $0 0 $0
2013-03 0 $0 75,375 $6,644,914 89,892 $13,741,390
2013-02 0 $0 45,314 $3,596,121 45,314 $1,457,846
2012-11 0 $0 18,861 $1,053,103 18,861 $492,743
2012-05 0 $0 0 $0 3,903 $46,523
2011-11 1,000 $32,259 0 $0 0 $0
2011-08 1,000 $32,830 0 $0 0 $0

Table 2. Detailed insider stock purchases, sales, and option exercises of Marathon Petroleum Corp insiders (MPC)
  Trade Date   Insider Name Trade Type     Shares       Price ($)   Value ($)
2017-09-14 Palmer C. Michael (Sr. VP, Supply Distrib. & Plan) Sale 11,450 53.02 607,079
2017-09-14 Palmer C. Michael (Sr. VP, Supply Distrib. & Plan) Option Ex 11,450 21.69 248,350
2017-06-14 Kelley Thomas M. (Sr. Vice President, Marketing) Sale 25,000 54.35 1,358,675
2017-06-14 Kelley Thomas M. (Sr. Vice President, Marketing) Option Ex 25,000 12.38 309,625
2017-05-30 Nichols Rodney P. (Ex. VP, HR, Health & Admin.) Option Ex 7,806 25.88 201,980
2017-05-30 Heminger Gary R. (Chairman, President & CEO) Option Ex 71,024 25.88 1,837,746
2017-05-24 Palmer C. Michael (Sr. VP, Supply Distrib. & Plan) Sale 4,000 53.25 213,000
2017-05-24 Palmer C. Michael (Sr. VP, Supply Distrib. & Plan) Option Ex 4,000 25.88 103,500
2017-05-18 Palmer C. Michael (Sr. VP, Supply Distrib. & Plan) Sale 4,568 52.03 237,695
2017-05-18 Palmer C. Michael (Sr. VP, Supply Distrib. & Plan) Option Ex 4,568 25.88 118,197
2017-03-06 Kelley Thomas M. (Sr. Vice President, Marketing) Sale 28,756 50.63 1,455,916
2017-03-06 Kelley Thomas M. (Sr. Vice President, Marketing) Option Ex 28,756 17.04 490,088
2017-02-21 Swearingen John S (Sr. VP, Trans. & Logistics) Sale 17,136 50.48 865,025
2017-02-21 Swearingen John S (Sr. VP, Trans. & Logistics) Option Ex 17,136 25.88 443,394
2017-02-09 Bunch Charles E (Director) Buy 2,000 49.94 99,880
2016-06-01 Nichols Rodney P. (Sr. VP, HR & Admin. Services) Option Ex 9,898 16.03 158,664
2016-06-01 Heminger Gary R. (Chairman, President & CEO) Option Ex 71,958 16.03 1,153,486
2016-05-26 Davis Steven A (Director) Buy 1,500 34.70 52,050
2016-05-02 Bunch Charles E (Director) Buy 2,000 38.56 77,120
2015-12-10 Beall Pamela K.m. (Sr. VP (See Remarks)) Sale 47,342 52.73 2,496,343
2015-12-10 Beall Pamela K.m. (Sr. VP (See Remarks)) Option Ex 47,342 19.02 900,586
2015-09-03 Quaid John J (Vice President and Controller) Buy 400 47.15 18,858
2015-08-20 Griffith Timothy T. (Sr. Vice President and CFO) Buy 1,000 54.11 54,110
2015-08-20 Rohr James E (Director) Buy 2,400 53.40 128,160
2015-06-02 Beall Pamela K.m. (Sr. VP (See Remarks)) Sale 26,673 102.89 2,744,251
2015-06-02 Beall Pamela K.m. (Sr. VP (See Remarks)) Option Ex 30,049 36.82 1,106,494
2015-05-20 Heminger Gary R. (President & CEO) Sale 36,659 104.30 3,823,533
2015-05-20 Heminger Gary R. (President & CEO) Option Ex 36,659 20.20 740,511
2015-05-06 Shaffner George P. (Sr. VP, HES&S (See Remarks)) Sale 25,561 100.61 2,571,564
2015-05-06 Shaffner George P. (Sr. VP, HES&S (See Remarks)) Option Ex 25,561 38.05 972,468
2015-05-04 Shaffner George P. (Sr. VP, HES&S (See Remarks)) Sale 26,213 101.46 2,659,570
2015-05-04 Shaffner George P. (Sr. VP, HES&S (See Remarks)) Option Ex 26,213 34.41 901,989
2015-03-13 Davis Steven A (Director) Buy 3,500 96.73 338,569
2015-02-23 Nichols Rodney P. (Sr. VP, HR & Admin. Services) Sale 9,712 106.35 1,032,871
2015-02-23 Nichols Rodney P. (Sr. VP, HR & Admin. Services) Option Ex 9,712 20.20 196,182
2015-02-13 Bedell Richard D. (Sr. Vice President, Refining) Sale 33,161 102.32 3,392,934
2015-02-13 Bedell Richard D. (Sr. Vice President, Refining) Option Ex 33,161 27.85 923,434
2015-02-13 Wilder J. Michael (VP, General Counsel & Sec) Sale 5,806 102.22 593,489
2015-02-13 Wilder J. Michael (VP, General Counsel & Sec) Option Ex 5,806 32.06 186,140
2015-02-11 Kelley Thomas M. (Sr. Vice President, Marketing) Sale 20,467 101.33 2,073,921
2015-02-11 Kelley Thomas M. (Sr. Vice President, Marketing) Option Ex 20,467 32.61 667,428
2014-11-28 Bayh Evan (Director) Buy 5,550 90.06 499,849
2014-08-08 Braddock Michael G. (VP & Chief Acctg Officer) Sale 1,871 87.64 163,965
2014-08-08 Braddock Michael G. (VP & Chief Acctg Officer) Option Ex 1,871 26.98 50,479
2014-03-05 Braddock Michael G. (Vice President and Controller) Option Ex 413 14.25 5,885
2014-02-25 Kelley Thomas M. (Sr. Vice President, Marketing) Option Ex 1,713 14.25 24,410
2014-02-25 Nichols Rodney P. (Sr. VP, HR & Admin. Services) Sale 9,827 90.35 887,869
2014-02-25 Nichols Rodney P. (Sr. VP, HR & Admin. Services) Option Ex 20,566 14.25 293,065
2014-02-25 Heminger Gary R. (President & CEO) Sale 16,797 90.40 1,518,448
2014-02-25 Heminger Gary R. (President & CEO) Option Ex 37,228 14.25 530,499
2014-01-02 Wilder J. Michael (VP, General Counsel & Sec) Sale 32,638 90.98 2,969,535
2014-01-02 Wilder J. Michael (VP, General Counsel & Sec) Option Ex 32,638 22.91 747,867
2013-08-05 Rohr James E (Director) Buy 6,300 71.37 449,631
2013-03-14 Palmer C. Michael (Sr. VP, Supply Distrib. & Plan) Sale 12,401 87.25 1,081,987
2013-03-14 Palmer C. Michael (Sr. VP, Supply Distrib. & Plan) Option Ex 12,401 949.39 11,773,447
2013-03-13 Palmer C. Michael (Sr. VP, Supply Distrib. & Plan) Sale 20,333 88.04 1,790,137
2013-03-13 Palmer C. Michael (Sr. VP, Supply Distrib. & Plan) Option Ex 25,746 23.77 611,956
2013-03-11 Shaffner George P. (Sr. VP, Transp. & Logistics) Sale 14,629 88.48 1,294,373
2013-03-11 Shaffner George P. (Sr. VP, Transp. & Logistics) Option Ex 17,069 35.90 612,811
2013-03-08 Bedell Richard D. (Sr. Vice President, Refining) Sale 28,012 88.48 2,478,417
2013-03-08 Bedell Richard D. (Sr. Vice President, Refining) Option Ex 34,676 21.43 743,176
2013-02-11 Wilder J. Michael (VP, General Counsel & Sec) Sale 13,997 81.62 1,142,435
2013-02-11 Wilder J. Michael (VP, General Counsel & Sec) Option Ex 13,997 20.20 282,739
2013-02-07 Kenney Anthony R. (President, Speedway LLC) Sale 31,317 78.35 2,453,686
2013-02-07 Kenney Anthony R. (President, Speedway LLC) Option Ex 31,317 37.52 1,175,107
2012-11-07 Beall Pamela K.m. (Vice President (See Remarks)) Sale 18,861 55.84 1,053,103
2012-11-07 Beall Pamela K.m. (Vice President (See Remarks)) Option Ex 18,861 26.12 492,743
2012-05-25 Nichols Rodney P. (Sr. VP, HR & Admin. Services) Option Ex 3,903 11.92 46,523
2011-11-17 Griffith Timothy T. (VP, Finance & Treasurer) Buy 1,000 32.26 32,259
2011-08-09 Griffith Timothy T. (VP, Finance & Treasurer) Buy 1,000 32.83 32,830

Insider trading activities including stock purchases, stock sales, and option exercises of MPC listed in the above tables cannot be completely guaranteed as to their accuracy. For more insider trading information of Marathon Petroleum Corp (symbol MPC, CIK number 1510295) see the Securities and Exchange Commission (SEC) website.